GFA weather

Malmstrom Air Force Base
Great Falls, Montana, United States

Public forecast

Using degrees Fahrenheit for public forecast. Weather courtesy of forecast.io.

Current aviation weather report (METAR) for Malmstrom Air Force Base

Retrieved 2019/11/18 17:58 UTC (19 minutes ago):

KGFA 181758Z AUTO 24019KT 10SM BKN170 12/00 A2994 RMK AO2 SLP149 T01161002 10121 20094 50006

Aviation forecast (TAF) for Malmstrom Air Force Base

Retrieved 2019/11/18 19:02 UTC (0 seconds ago):

TAF KGFA 181900Z 1819/2001 23012G18KT 9999 SCT030 QNH2965INS BECMG 1909/1910 23012KT 8000 -SHRA BKN025 610557 QNH2959INS BECMG 1914/1915 22009KT 6000 -SHRA BKN015 610558 QNH2963INS BECMG 2000/2001 30009KT 6000 -SHSN BKN010 610109 QNH2970INS TX14/1821Z TN01/1909Z